Date,TemperatureHighF,TemperatureAvgF,TemperatureLowF,DewpointHighF,DewpointAvgF,DewpointLowF,HumidityHigh,HumidityAvg,HumidityLow,PressureMaxIn,PressureMinIn,WindSpeedMaxMPH,WindSpeedAvgMPH,GustSpeedMaxMPH,PrecipitationSumIn
2014-2-1,55.8,41.7,30.0,34.7,29.0,23.4,88,63,40,30.13,29.83,14,1,15,0.00
2014-2-2,41.2,35.4,27.9,38.7,33.5,27.3,99,93,69,30.15,29.84,11,0,12,0.31
2014-2-3,33.3,24.5,8.8,27.3,21.1,4.3,98,87,67,30.36,30.07,14,1,15,0.17
2014-2-4,33.4,20.7,6.1,26.4,15.1,-99.9,94,81,65,30.42,30.01,8,0,9,0.03
2014-2-5,37.6,29.5,21.9,37.6,27.1,18.0,100,91,79,30.22,29.57,33,5,33,0.42
2014-2-6,24.8,20.2,13.6,18.3,13.6,7.7,86,76,60,30.40,30.22,17,4,17,0.01
2014-2-7,22.5,16.7,8.8,16.9,7.0,1.2,84,66,45,30.40,30.29,25,4,26,0.00
2014-2-8,27.9,15.4,5.0,13.1,5.3,0.7,86,66,33,30.36,30.17,9,0,10,0.01
2014-2-9,30.4,23.2,17.2,28.0,18.9,9.9,94,84,71,30.17,29.92,24,2,27,0.00
2014-2-10,21.6,15.2,2.7,11.1,7.2,-3.1,85,71,54,30.37,30.15,14,2,15,0.00
2014-2-11,28.4,10.4,-4.5,13.6,1.0,-9.0,89,67,40,30.48,30.37,12,0,12,0.05
2014-2-12,32.7,15.4,-3.6,10.4,3.0,-8.3,88,60,36,30.46,30.07,14,1,14,0.01
2014-2-13,30.7,26.8,21.7,27.3,22.1,10.4,91,83,57,30.07,29.56,13,1,13,0.09
2014-2-14,36.1,30.3,20.7,24.4,21.8,16.7,90,71,57,29.69,29.49,24,4,24,0.05
2014-2-15,28.9,24.0,10.8,25.0,18.3,2.1,95,80,50,30.07,29.64,20,3,20,0.02
2014-2-16,27.3,18.3,6.1,23.5,13.4,-1.7,91,81,68,30.32,29.98,16,2,16,0.00
2014-2-17,34.3,20.2,-3.3,28.4,8.9,-7.6,92,65,36,30.43,29.79,37,3,37,0.02
2014-2-18,46.8,36.9,27.5,35.2,29.4,23.0,95,75,45,30.03,29.80,33,7,36,0.24
2014-2-19,49.5,40.2,26.8,44.2,32.8,21.7,97,76,47,30.11,29.67,37,4,37,0.15
2014-2-20,55.2,39.0,21.0,45.1,33.2,19.6,100,81,59,30.12,29.63,18,2,20,0.10
2014-2-21,56.1,45.9,36.5,51.3,35.0,16.3,95,68,39,29.94,29.51,34,7,35,0.23
2014-2-22,54.1,42.0,31.8,28.6,21.5,16.5,79,46,26,29.99,29.91,30,5,32,0.00
2014-2-23,45.1,35.2,28.6,36.5,29.5,17.2,93,81,59,30.03,29.93,19,1,19,0.01
2014-2-24,32.9,26.6,22.1,17.8,10.7,4.1,66,52,32,30.15,30.01,31,5,31,0.00
2014-2-25,26.8,23.5,20.7,18.5,14.8,9.1,85,69,57,30.12,29.97,17,3,17,0.00
2014-2-26,24.1,19.3,13.8,18.3,8.5,0.7,84,64,39,30.07,29.80,20,4,20,0.00
2014-2-27,23.5,14.2,5.7,17.2,-12.2,-99.9,85,49,39,30.19,29.66,33,8,34,0.00
2014-2-28,28.8,14.5,-0.2,7.3,-1.5,-6.2,83,53,22,30.37,30.17,16,1,16,0.00